sensor_id;sensor_type;location;lat;lon;timestamp;P1;durP1;ratioP1;P2;durP2;ratioP2
16063;SDS011;8136;53.172;8.256;2024-02-21T00:00:54;27.93;;;13.30;;
16063;SDS011;8136;53.172;8.256;2024-02-21T00:03:21;27.03;;;13.53;;
16063;SDS011;8136;53.172;8.256;2024-02-21T00:05:49;27.07;;;13.40;;
16063;SDS011;8136;53.172;8.256;2024-02-21T00:08:16;27.27;;;14.70;;
16063;SDS011;8136;53.172;8.256;2024-02-21T00:10:43;33.17;;;15.50;;
16063;SDS011;8136;53.172;8.256;2024-02-21T00:13:10;25.30;;;15.00;;
16063;SDS011;8136;53.172;8.256;2024-02-21T00:15:37;26.40;;;15.33;;
16063;SDS011;8136;53.172;8.256;2024-02-21T00:18:04;31.37;;;15.13;;
16063;SDS011;8136;53.172;8.256;2024-02-21T00:20:31;28.13;;;15.97;;
16063;SDS011;8136;53.172;8.256;2024-02-21T00:22:59;36.40;;;16.63;;
16063;SDS011;8136;53.172;8.256;2024-02-21T00:25:26;24.10;;;15.40;;
16063;SDS011;8136;53.172;8.256;2024-02-21T00:27:53;28.83;;;16.00;;
16063;SDS011;8136;53.172;8.256;2024-02-21T00:30:19;25.93;;;15.87;;
16063;SDS011;8136;53.172;8.256;2024-02-21T00:32:46;31.60;;;16.23;;
16063;SDS011;8136;53.172;8.256;2024-02-21T00:35:13;26.67;;;16.17;;
16063;SDS011;8136;53.172;8.256;2024-02-21T00:37:40;25.57;;;15.63;;
16063;SDS011;8136;53.172;8.256;2024-02-21T00:40:09;28.50;;;15.30;;
16063;SDS011;8136;53.172;8.256;2024-02-21T00:42:36;22.07;;;14.80;;
16063;SDS011;8136;53.172;8.256;2024-02-21T00:45:03;25.03;;;15.27;;
16063;SDS011;8136;53.172;8.256;2024-02-21T00:47:31;29.23;;;15.17;;
16063;SDS011;8136;53.172;8.256;2024-02-21T00:49:58;27.43;;;14.80;;
16063;SDS011;8136;53.172;8.256;2024-02-21T00:52:25;27.10;;;15.07;;
16063;SDS011;8136;53.172;8.256;2024-02-21T00:54:52;23.33;;;14.70;;
16063;SDS011;8136;53.172;8.256;2024-02-21T00:57:20;26.97;;;15.03;;
16063;SDS011;8136;53.172;8.256;2024-02-21T00:59:48;25.97;;;14.80;;
16063;SDS011;8136;53.172;8.256;2024-02-21T01:02:15;23.83;;;14.83;;
16063;SDS011;8136;53.172;8.256;2024-02-21T01:04:42;20.70;;;13.60;;
16063;SDS011;8136;53.172;8.256;2024-02-21T01:07:09;25.17;;;14.37;;
16063;SDS011;8136;53.172;8.256;2024-02-21T01:09:36;24.10;;;14.40;;
16063;SDS011;8136;53.172;8.256;2024-02-21T01:12:03;30.50;;;13.63;;
16063;SDS011;8136;53.172;8.256;2024-02-21T01:14:32;22.20;;;13.00;;
16063;SDS011;8136;53.172;8.256;2024-02-21T01:16:59;26.07;;;14.17;;
16063;SDS011;8136;53.172;8.256;2024-02-21T01:19:26;26.33;;;13.87;;
16063;SDS011;8136;53.172;8.256;2024-02-21T01:21:53;25.33;;;12.43;;
16063;SDS011;8136;53.172;8.256;2024-02-21T01:24:20;26.67;;;14.13;;
16063;SDS011;8136;53.172;8.256;2024-02-21T01:26:47;23.50;;;13.23;;
16063;SDS011;8136;53.172;8.256;2024-02-21T01:29:13;23.37;;;13.70;;
16063;SDS011;8136;53.172;8.256;2024-02-21T01:31:42;25.33;;;12.53;;
16063;SDS011;8136;53.172;8.256;2024-02-21T01:34:08;22.23;;;12.33;;
16063;SDS011;8136;53.172;8.256;2024-02-21T01:36:35;16.53;;;12.13;;
16063;SDS011;8136;53.172;8.256;2024-02-21T01:39:02;22.17;;;12.17;;
16063;SDS011;8136;53.172;8.256;2024-02-21T01:41:29;21.00;;;12.47;;
16063;SDS011;8136;53.172;8.256;2024-02-21T01:43:56;25.30;;;12.97;;
16063;SDS011;8136;53.172;8.256;2024-02-21T01:46:23;20.70;;;12.07;;
16063;SDS011;8136;53.172;8.256;2024-02-21T01:48:54;21.63;;;12.63;;
16063;SDS011;8136;53.172;8.256;2024-02-21T01:51:22;25.43;;;13.30;;
16063;SDS011;8136;53.172;8.256;2024-02-21T01:53:49;19.23;;;12.27;;
16063;SDS011;8136;53.172;8.256;2024-02-21T01:56:17;26.20;;;12.93;;
16063;SDS011;8136;53.172;8.256;2024-02-21T01:58:45;20.73;;;12.97;;
16063;SDS011;8136;53.172;8.256;2024-02-21T02:01:13;24.23;;;12.60;;
16063;SDS011;8136;53.172;8.256;2024-02-21T02:03:40;23.60;;;13.00;;
16063;SDS011;8136;53.172;8.256;2024-02-21T02:06:09;25.27;;;12.63;;
16063;SDS011;8136;53.172;8.256;2024-02-21T02:08:36;20.23;;;12.13;;
16063;SDS011;8136;53.172;8.256;2024-02-21T02:11:03;21.20;;;12.23;;
16063;SDS011;8136;53.172;8.256;2024-02-21T02:13:31;24.77;;;11.63;;
16063;SDS011;8136;53.172;8.256;2024-02-21T02:15:59;21.23;;;12.03;;
16063;SDS011;8136;53.172;8.256;2024-02-21T02:18:26;23.90;;;11.10;;
16063;SDS011;8136;53.172;8.256;2024-02-21T02:20:53;20.40;;;11.83;;
16063;SDS011;8136;53.172;8.256;2024-02-21T02:23:23;19.47;;;11.07;;
16063;SDS011;8136;53.172;8.256;2024-02-21T02:25:50;20.90;;;11.53;;
16063;SDS011;8136;53.172;8.256;2024-02-21T02:28:18;26.87;;;11.40;;
16063;SDS011;8136;53.172;8.256;2024-02-21T02:30:45;22.93;;;11.57;;
16063;SDS011;8136;53.172;8.256;2024-02-21T02:33:12;22.30;;;11.83;;
16063;SDS011;8136;53.172;8.256;2024-02-21T02:35:42;23.80;;;11.83;;
16063;SDS011;8136;53.172;8.256;2024-02-21T02:38:12;18.13;;;10.73;;
16063;SDS011;8136;53.172;8.256;2024-02-21T02:40:41;18.47;;;11.47;;
16063;SDS011;8136;53.172;8.256;2024-02-21T02:43:15;17.90;;;10.80;;
16063;SDS011;8136;53.172;8.256;2024-02-21T02:45:49;23.53;;;11.43;;
16063;SDS011;8136;53.172;8.256;2024-02-21T02:48:29;18.70;;;10.43;;
16063;SDS011;8136;53.172;8.256;2024-02-21T02:50:58;23.23;;;10.90;;
16063;SDS011;8136;53.172;8.256;2024-02-21T02:53:41;17.43;;;10.57;;
16063;SDS011;8136;53.172;8.256;2024-02-21T02:56:15;22.27;;;11.67;;
16063;SDS011;8136;53.172;8.256;2024-02-21T02:58:52;22.07;;;11.53;;
16063;SDS011;8136;53.172;8.256;2024-02-21T03:01:35;19.00;;;11.40;;
16063;SDS011;8136;53.172;8.256;2024-02-21T03:04:05;24.23;;;12.70;;
16063;SDS011;8136;53.172;8.256;2024-02-21T03:06:47;28.90;;;11.03;;
16063;SDS011;8136;53.172;8.256;2024-02-21T03:09:23;28.10;;;13.60;;
16063;SDS011;8136;53.172;8.256;2024-02-21T03:11:58;27.50;;;13.30;;
16063;SDS011;8136;53.172;8.256;2024-02-21T03:14:32;25.33;;;13.57;;
16063;SDS011;8136;53.172;8.256;2024-02-21T03:20:13;29.53;;;13.80;;
16063;SDS011;8136;53.172;8.256;2024-02-21T03:22:53;28.27;;;13.20;;
16063;SDS011;8136;53.172;8.256;2024-02-21T03:25:22;26.43;;;14.53;;
16063;SDS011;8136;53.172;8.256;2024-02-21T03:27:50;27.57;;;15.10;;
16063;SDS011;8136;53.172;8.256;2024-02-21T03:30:47;27.20;;;14.23;;
16063;SDS011;8136;53.172;8.256;2024-02-21T03:33:16;27.57;;;13.10;;
16063;SDS011;8136;53.172;8.256;2024-02-21T03:35:58;28.97;;;14.40;;
16063;SDS011;8136;53.172;8.256;2024-02-21T03:38:34;23.80;;;13.37;;
16063;SDS011;8136;53.172;8.256;2024-02-21T03:41:08;29.50;;;15.27;;
16063;SDS011;8136;53.172;8.256;2024-02-21T03:43:50;31.67;;;14.90;;
16063;SDS011;8136;53.172;8.256;2024-02-21T03:46:26;26.93;;;15.60;;
16063;SDS011;8136;53.172;8.256;2024-02-21T03:48:57;31.30;;;14.67;;
16063;SDS011;8136;53.172;8.256;2024-02-21T03:51:25;22.03;;;12.40;;
16063;SDS011;8136;53.172;8.256;2024-02-21T03:53:58;26.27;;;13.70;;
16063;SDS011;8136;53.172;8.256;2024-02-21T03:56:25;24.33;;;13.80;;
16063;SDS011;8136;53.172;8.256;2024-02-21T03:58:55;27.30;;;13.67;;
16063;SDS011;8136;53.172;8.256;2024-02-21T04:01:28;24.33;;;13.50;;
16063;SDS011;8136;53.172;8.256;2024-02-21T04:03:55;27.47;;;14.20;;
16063;SDS011;8136;53.172;8.256;2024-02-21T04:06:27;27.40;;;13.93;;
16063;SDS011;8136;53.172;8.256;2024-02-21T04:08:58;25.67;;;14.03;;
16063;SDS011;8136;53.172;8.256;2024-02-21T04:11:27;22.90;;;12.23;;
16063;SDS011;8136;53.172;8.256;2024-02-21T04:13:55;24.90;;;13.83;;
16063;SDS011;8136;53.172;8.256;2024-02-21T04:16:22;23.50;;;13.03;;
16063;SDS011;8136;53.172;8.256;2024-02-21T04:18:56;24.97;;;12.23;;
16063;SDS011;8136;53.172;8.256;2024-02-21T04:21:23;20.13;;;11.63;;
16063;SDS011;8136;53.172;8.256;2024-02-21T04:23:51;21.57;;;12.30;;
16063;SDS011;8136;53.172;8.256;2024-02-21T04:26:20;21.90;;;11.70;;
16063;SDS011;8136;53.172;8.256;2024-02-21T04:28:50;22.70;;;12.47;;
16063;SDS011;8136;53.172;8.256;2024-02-21T04:31:22;22.30;;;10.97;;
16063;SDS011;8136;53.172;8.256;2024-02-21T04:33:49;22.03;;;11.67;;
16063;SDS011;8136;53.172;8.256;2024-02-21T04:36:16;23.47;;;11.87;;
16063;SDS011;8136;53.172;8.256;2024-02-21T04:38:43;19.50;;;11.83;;
16063;SDS011;8136;53.172;8.256;2024-02-21T04:41:17;23.20;;;11.90;;
16063;SDS011;8136;53.172;8.256;2024-02-21T04:43:45;21.90;;;11.93;;
16063;SDS011;8136;53.172;8.256;2024-02-21T04:46:15;24.50;;;11.73;;
16063;SDS011;8136;53.172;8.256;2024-02-21T04:48:44;19.90;;;11.00;;
16063;SDS011;8136;53.172;8.256;2024-02-21T04:51:11;18.03;;;10.90;;
16063;SDS011;8136;53.172;8.256;2024-02-21T04:53:38;20.13;;;11.17;;
16063;SDS011;8136;53.172;8.256;2024-02-21T04:56:06;17.97;;;10.87;;
16063;SDS011;8136;53.172;8.256;2024-02-21T04:58:38;21.33;;;10.37;;
16063;SDS011;8136;53.172;8.256;2024-02-21T05:01:05;18.40;;;11.10;;
16063;SDS011;8136;53.172;8.256;2024-02-21T05:03:32;18.83;;;10.37;;
16063;SDS011;8136;53.172;8.256;2024-02-21T05:06:04;17.87;;;10.67;;
16063;SDS011;8136;53.172;8.256;2024-02-21T05:08:39;15.87;;;10.20;;
16063;SDS011;8136;53.172;8.256;2024-02-21T05:11:06;18.07;;;9.80;;
16063;SDS011;8136;53.172;8.256;2024-02-21T05:13:33;16.57;;;9.43;;
16063;SDS011;8136;53.172;8.256;2024-02-21T05:16:00;16.90;;;9.10;;
16063;SDS011;8136;53.172;8.256;2024-02-21T05:18:28;15.17;;;9.23;;
16063;SDS011;8136;53.172;8.256;2024-02-21T05:21:01;15.37;;;10.10;;
16063;SDS011;8136;53.172;8.256;2024-02-21T05:23:29;15.03;;;9.30;;
16063;SDS011;8136;53.172;8.256;2024-02-21T05:25:58;16.80;;;9.03;;
16063;SDS011;8136;53.172;8.256;2024-02-21T05:28:28;15.20;;;9.73;;
16063;SDS011;8136;53.172;8.256;2024-02-21T05:31:09;16.37;;;8.13;;
16063;SDS011;8136;53.172;8.256;2024-02-21T05:33:39;14.87;;;8.80;;
16063;SDS011;8136;53.172;8.256;2024-02-21T05:36:06;11.83;;;9.00;;
16063;SDS011;8136;53.172;8.256;2024-02-21T05:38:36;15.63;;;8.60;;
16063;SDS011;8136;53.172;8.256;2024-02-21T05:41:06;16.27;;;9.03;;
16063;SDS011;8136;53.172;8.256;2024-02-21T05:43:33;14.57;;;8.23;;
16063;SDS011;8136;53.172;8.256;2024-02-21T05:46:06;12.57;;;7.70;;
16063;SDS011;8136;53.172;8.256;2024-02-21T05:48:36;11.10;;;6.83;;
16063;SDS011;8136;53.172;8.256;2024-02-21T05:51:05;14.40;;;8.57;;
16063;SDS011;8136;53.172;8.256;2024-02-21T06:08:58;10.27;;;6.80;;
16063;SDS011;8136;53.172;8.256;2024-02-21T06:11:27;17.00;;;7.43;;
16063;SDS011;8136;53.172;8.256;2024-02-21T06:13:54;15.33;;;7.27;;
16063;SDS011;8136;53.172;8.256;2024-02-21T06:16:21;12.03;;;8.43;;
16063;SDS011;8136;53.172;8.256;2024-02-21T06:18:48;11.97;;;7.97;;
16063;SDS011;8136;53.172;8.256;2024-02-21T06:21:15;14.67;;;9.17;;
16063;SDS011;8136;53.172;8.256;2024-02-21T06:23:42;13.23;;;8.27;;
16063;SDS011;8136;53.172;8.256;2024-02-21T06:26:11;13.43;;;8.00;;
16063;SDS011;8136;53.172;8.256;2024-02-21T06:28:37;19.60;;;10.20;;
16063;SDS011;8136;53.172;8.256;2024-02-21T06:31:04;14.07;;;8.63;;
16063;SDS011;8136;53.172;8.256;2024-02-21T06:33:31;15.53;;;9.33;;
16063;SDS011;8136;53.172;8.256;2024-02-21T06:35:58;21.17;;;9.67;;
16063;SDS011;8136;53.172;8.256;2024-02-21T06:38:25;16.10;;;9.60;;
16063;SDS011;8136;53.172;8.256;2024-02-21T06:40:52;17.27;;;9.53;;
16063;SDS011;8136;53.172;8.256;2024-02-21T06:43:21;17.30;;;9.80;;
16063;SDS011;8136;53.172;8.256;2024-02-21T06:45:47;18.77;;;10.03;;
16063;SDS011;8136;53.172;8.256;2024-02-21T06:48:16;19.10;;;10.77;;
16063;SDS011;8136;53.172;8.256;2024-02-21T06:50:44;15.63;;;9.10;;
16063;SDS011;8136;53.172;8.256;2024-02-21T06:53:12;19.70;;;10.67;;
16063;SDS011;8136;53.172;8.256;2024-02-21T06:55:39;17.50;;;10.13;;
16063;SDS011;8136;53.172;8.256;2024-02-21T06:58:06;20.03;;;10.77;;
16063;SDS011;8136;53.172;8.256;2024-02-21T07:00:38;18.10;;;10.33;;
16063;SDS011;8136;53.172;8.256;2024-02-21T07:03:05;16.67;;;10.03;;
16063;SDS011;8136;53.172;8.256;2024-02-21T07:05:32;19.90;;;10.50;;
16063;SDS011;8136;53.172;8.256;2024-02-21T07:07:59;21.23;;;10.77;;
16063;SDS011;8136;53.172;8.256;2024-02-21T07:10:25;19.97;;;10.70;;
16063;SDS011;8136;53.172;8.256;2024-02-21T07:12:54;19.97;;;11.97;;
16063;SDS011;8136;53.172;8.256;2024-02-21T07:15:20;23.73;;;11.73;;
16063;SDS011;8136;53.172;8.256;2024-02-21T07:17:49;23.33;;;12.30;;
16063;SDS011;8136;53.172;8.256;2024-02-21T07:20:16;20.90;;;11.97;;
16063;SDS011;8136;53.172;8.256;2024-02-21T07:22:43;19.90;;;11.87;;
16063;SDS011;8136;53.172;8.256;2024-02-21T07:25:09;18.33;;;10.67;;
16063;SDS011;8136;53.172;8.256;2024-02-21T07:27:36;22.80;;;12.10;;
16063;SDS011;8136;53.172;8.256;2024-02-21T07:30:04;26.20;;;12.50;;
16063;SDS011;8136;53.172;8.256;2024-02-21T07:32:32;21.93;;;11.70;;
16063;SDS011;8136;53.172;8.256;2024-02-21T07:35:00;19.93;;;12.07;;
16063;SDS011;8136;53.172;8.256;2024-02-21T07:37:27;20.47;;;12.00;;
16063;SDS011;8136;53.172;8.256;2024-02-21T07:39:54;25.70;;;13.17;;
16063;SDS011;8136;53.172;8.256;2024-02-21T07:42:20;26.87;;;13.60;;
16063;SDS011;8136;53.172;8.256;2024-02-21T07:44:47;24.27;;;12.63;;
16063;SDS011;8136;53.172;8.256;2024-02-21T07:47:14;27.30;;;14.23;;
16063;SDS011;8136;53.172;8.256;2024-02-21T07:49:42;29.43;;;13.90;;
16063;SDS011;8136;53.172;8.256;2024-02-21T07:52:11;33.37;;;14.70;;
16063;SDS011;8136;53.172;8.256;2024-02-21T07:54:38;30.87;;;14.70;;
16063;SDS011;8136;53.172;8.256;2024-02-21T07:57:05;31.20;;;15.53;;
16063;SDS011;8136;53.172;8.256;2024-02-21T07:59:32;29.53;;;14.80;;
16063;SDS011;8136;53.172;8.256;2024-02-21T08:01:58;31.40;;;14.60;;
16063;SDS011;8136;53.172;8.256;2024-02-21T08:04:25;27.00;;;14.70;;
16063;SDS011;8136;53.172;8.256;2024-02-21T08:06:52;27.63;;;15.10;;
16063;SDS011;8136;53.172;8.256;2024-02-21T08:09:22;28.93;;;14.27;;
16063;SDS011;8136;53.172;8.256;2024-02-21T08:11:49;29.57;;;15.07;;
16063;SDS011;8136;53.172;8.256;2024-02-21T08:14:16;30.77;;;15.60;;
16063;SDS011;8136;53.172;8.256;2024-02-21T08:16:43;25.10;;;13.87;;
16063;SDS011;8136;53.172;8.256;2024-02-21T08:19:10;34.23;;;14.83;;
16063;SDS011;8136;53.172;8.256;2024-02-21T08:21:37;33.30;;;15.67;;
16063;SDS011;8136;53.172;8.256;2024-02-21T08:24:04;34.30;;;15.53;;
16063;SDS011;8136;53.172;8.256;2024-02-21T08:26:33;29.30;;;15.30;;
16063;SDS011;8136;53.172;8.256;2024-02-21T08:29:01;34.67;;;15.27;;
16063;SDS011;8136;53.172;8.256;2024-02-21T08:31:28;25.50;;;13.83;;
16063;SDS011;8136;53.172;8.256;2024-02-21T08:33:56;38.87;;;15.77;;
16063;SDS011;8136;53.172;8.256;2024-02-21T08:36:27;37.27;;;15.27;;
16063;SDS011;8136;53.172;8.256;2024-02-21T08:38:55;28.03;;;14.83;;
16063;SDS011;8136;53.172;8.256;2024-02-21T08:41:22;33.47;;;15.47;;
16063;SDS011;8136;53.172;8.256;2024-02-21T08:43:51;36.83;;;15.97;;
16063;SDS011;8136;53.172;8.256;2024-02-21T08:46:19;32.07;;;15.20;;
16063;SDS011;8136;53.172;8.256;2024-02-21T08:48:46;30.00;;;14.13;;
16063;SDS011;8136;53.172;8.256;2024-02-21T08:51:13;28.83;;;14.03;;
16063;SDS011;8136;53.172;8.256;2024-02-21T08:53:40;31.53;;;15.33;;
16063;SDS011;8136;53.172;8.256;2024-02-21T08:56:09;29.67;;;14.07;;
16063;SDS011;8136;53.172;8.256;2024-02-21T08:58:36;25.13;;;13.33;;
16063;SDS011;8136;53.172;8.256;2024-02-21T09:01:07;30.23;;;14.33;;
16063;SDS011;8136;53.172;8.256;2024-02-21T09:03:35;28.30;;;13.17;;
16063;SDS011;8136;53.172;8.256;2024-02-21T09:06:03;30.27;;;14.33;;
16063;SDS011;8136;53.172;8.256;2024-02-21T09:08:30;26.63;;;13.73;;
16063;SDS011;8136;53.172;8.256;2024-02-21T09:10:57;25.80;;;13.87;;
16063;SDS011;8136;53.172;8.256;2024-02-21T09:13:26;24.07;;;15.03;;
16063;SDS011;8136;53.172;8.256;2024-02-21T09:15:53;29.50;;;14.37;;
16063;SDS011;8136;53.172;8.256;2024-02-21T09:18:21;28.90;;;13.13;;
16063;SDS011;8136;53.172;8.256;2024-02-21T09:20:48;24.63;;;14.00;;
16063;SDS011;8136;53.172;8.256;2024-02-21T09:23:14;29.60;;;14.00;;
16063;SDS011;8136;53.172;8.256;2024-02-21T09:25:42;32.03;;;13.90;;
16063;SDS011;8136;53.172;8.256;2024-02-21T09:28:08;23.53;;;13.60;;
16063;SDS011;8136;53.172;8.256;2024-02-21T09:30:35;25.23;;;13.63;;
16063;SDS011;8136;53.172;8.256;2024-02-21T09:33:03;28.30;;;14.90;;
16063;SDS011;8136;53.172;8.256;2024-02-21T09:35:32;24.77;;;13.70;;
16063;SDS011;8136;53.172;8.256;2024-02-21T09:37:59;26.63;;;14.63;;
16063;SDS011;8136;53.172;8.256;2024-02-21T09:40:27;29.23;;;14.33;;
16063;SDS011;8136;53.172;8.256;2024-02-21T09:42:58;26.37;;;15.63;;
16063;SDS011;8136;53.172;8.256;2024-02-21T09:45:29;28.60;;;15.00;;
16063;SDS011;8136;53.172;8.256;2024-02-21T09:48:10;29.43;;;14.77;;
16063;SDS011;8136;53.172;8.256;2024-02-21T09:50:47;26.83;;;15.47;;
16063;SDS011;8136;53.172;8.256;2024-02-21T09:53:16;26.07;;;14.80;;
16063;SDS011;8136;53.172;8.256;2024-02-21T09:55:45;30.33;;;16.00;;
16063;SDS011;8136;53.172;8.256;2024-02-21T09:58:13;28.10;;;15.67;;
16063;SDS011;8136;53.172;8.256;2024-02-21T10:00:40;23.93;;;14.30;;
16063;SDS011;8136;53.172;8.256;2024-02-21T10:03:07;24.83;;;14.53;;
16063;SDS011;8136;53.172;8.256;2024-02-21T10:05:35;29.27;;;15.63;;
16063;SDS011;8136;53.172;8.256;2024-02-21T10:08:04;31.27;;;15.03;;
16063;SDS011;8136;53.172;8.256;2024-02-21T10:10:40;30.10;;;15.10;;
16063;SDS011;8136;53.172;8.256;2024-02-21T10:13:09;26.20;;;15.47;;
16063;SDS011;8136;53.172;8.256;2024-02-21T10:15:36;24.93;;;14.57;;
16063;SDS011;8136;53.172;8.256;2024-02-21T10:18:04;26.93;;;13.97;;
16063;SDS011;8136;53.172;8.256;2024-02-21T10:20:31;21.07;;;12.47;;
16063;SDS011;8136;53.172;8.256;2024-02-21T10:23:03;25.97;;;13.87;;
16063;SDS011;8136;53.172;8.256;2024-02-21T10:25:33;22.93;;;13.97;;
16063;SDS011;8136;53.172;8.256;2024-02-21T10:28:01;25.50;;;13.47;;
16063;SDS011;8136;53.172;8.256;2024-02-21T10:30:29;21.10;;;13.00;;
16063;SDS011;8136;53.172;8.256;2024-02-21T10:32:56;23.00;;;14.20;;
16063;SDS011;8136;53.172;8.256;2024-02-21T10:35:26;21.60;;;12.37;;
16063;SDS011;8136;53.172;8.256;2024-02-21T10:37:54;23.03;;;12.53;;
16063;SDS011;8136;53.172;8.256;2024-02-21T10:40:24;21.57;;;12.40;;
16063;SDS011;8136;53.172;8.256;2024-02-21T10:42:55;23.97;;;13.07;;
16063;SDS011;8136;53.172;8.256;2024-02-21T10:45:25;23.63;;;12.47;;
16063;SDS011;8136;53.172;8.256;2024-02-21T10:47:59;23.17;;;12.37;;
16063;SDS011;8136;53.172;8.256;2024-02-21T10:50:32;21.83;;;12.47;;
16063;SDS011;8136;53.172;8.256;2024-02-21T10:53:14;21.43;;;11.97;;
16063;SDS011;8136;53.172;8.256;2024-02-21T10:55:56;21.23;;;11.60;;
16063;SDS011;8136;53.172;8.256;2024-02-21T10:58:28;21.00;;;11.90;;
16063;SDS011;8136;53.172;8.256;2024-02-21T11:00:56;22.47;;;11.60;;
16063;SDS011;8136;53.172;8.256;2024-02-21T11:03:23;22.03;;;12.80;;
16063;SDS011;8136;53.172;8.256;2024-02-21T11:05:51;15.00;;;10.57;;
16063;SDS011;8136;53.172;8.256;2024-02-21T11:08:18;20.00;;;12.20;;
16063;SDS011;8136;53.172;8.256;2024-02-21T11:10:45;17.60;;;11.03;;
16063;SDS011;8136;53.172;8.256;2024-02-21T11:13:14;17.07;;;11.23;;
16063;SDS011;8136;53.172;8.256;2024-02-21T11:15:41;19.63;;;11.70;;
16063;SDS011;8136;53.172;8.256;2024-02-21T11:18:07;18.63;;;9.93;;
16063;SDS011;8136;53.172;8.256;2024-02-21T11:20:35;20.40;;;10.97;;
16063;SDS011;8136;53.172;8.256;2024-02-21T11:23:03;20.73;;;10.83;;
16063;SDS011;8136;53.172;8.256;2024-02-21T11:25:30;16.50;;;10.27;;
16063;SDS011;8136;53.172;8.256;2024-02-21T11:27:59;16.93;;;10.37;;
16063;SDS011;8136;53.172;8.256;2024-02-21T11:30:29;18.03;;;10.07;;
16063;SDS011;8136;53.172;8.256;2024-02-21T11:33:01;14.33;;;9.13;;
16063;SDS011;8136;53.172;8.256;2024-02-21T11:35:31;18.27;;;9.97;;
16063;SDS011;8136;53.172;8.256;2024-02-21T11:38:09;15.53;;;8.87;;
16063;SDS011;8136;53.172;8.256;2024-02-21T11:40:39;16.80;;;9.27;;
16063;SDS011;8136;53.172;8.256;2024-02-21T11:43:06;17.97;;;9.33;;
16063;SDS011;8136;53.172;8.256;2024-02-21T11:45:35;17.93;;;9.30;;
16063;SDS011;8136;53.172;8.256;2024-02-21T11:48:02;12.27;;;8.40;;
16063;SDS011;8136;53.172;8.256;2024-02-21T11:50:30;16.57;;;8.70;;
16063;SDS011;8136;53.172;8.256;2024-02-21T11:52:57;12.63;;;8.67;;
16063;SDS011;8136;53.172;8.256;2024-02-21T11:55:24;16.03;;;8.47;;
16063;SDS011;8136;53.172;8.256;2024-02-21T11:57:51;16.10;;;8.03;;
16063;SDS011;8136;53.172;8.256;2024-02-21T12:00:18;14.63;;;8.00;;
16063;SDS011;8136;53.172;8.256;2024-02-21T12:02:47;13.83;;;8.27;;
16063;SDS011;8136;53.172;8.256;2024-02-21T12:05:15;11.73;;;7.33;;
16063;SDS011;8136;53.172;8.256;2024-02-21T12:07:44;12.97;;;6.73;;
16063;SDS011;8136;53.172;8.256;2024-02-21T12:10:12;11.40;;;6.87;;
16063;SDS011;8136;53.172;8.256;2024-02-21T12:12:39;10.40;;;6.93;;
16063;SDS011;8136;53.172;8.256;2024-02-21T12:15:07;12.03;;;6.20;;
16063;SDS011;8136;53.172;8.256;2024-02-21T12:17:34;10.10;;;7.00;;
16063;SDS011;8136;53.172;8.256;2024-02-21T12:20:03;11.77;;;6.87;;
16063;SDS011;8136;53.172;8.256;2024-02-21T12:22:35;12.17;;;6.40;;
16063;SDS011;8136;53.172;8.256;2024-02-21T12:25:02;10.73;;;6.07;;
16063;SDS011;8136;53.172;8.256;2024-02-21T12:27:32;10.10;;;5.47;;
16063;SDS011;8136;53.172;8.256;2024-02-21T12:29:59;10.83;;;5.87;;
16063;SDS011;8136;53.172;8.256;2024-02-21T12:32:27;9.50;;;5.30;;
16063;SDS011;8136;53.172;8.256;2024-02-21T12:34:53;10.83;;;5.83;;
16063;SDS011;8136;53.172;8.256;2024-02-21T12:37:23;9.43;;;5.83;;
16063;SDS011;8136;53.172;8.256;2024-02-21T12:39:51;11.60;;;4.80;;
16063;SDS011;8136;53.172;8.256;2024-02-21T12:42:18;11.27;;;4.87;;
16063;SDS011;8136;53.172;8.256;2024-02-21T12:44:45;11.37;;;5.20;;
16063;SDS011;8136;53.172;8.256;2024-02-21T12:47:12;7.70;;;4.60;;
16063;SDS011;8136;53.172;8.256;2024-02-21T12:49:39;9.57;;;4.80;;
16063;SDS011;8136;53.172;8.256;2024-02-21T12:52:07;8.07;;;4.87;;
16063;SDS011;8136;53.172;8.256;2024-02-21T12:54:51;9.43;;;4.40;;
16063;SDS011;8136;53.172;8.256;2024-02-21T12:57:24;5.37;;;4.33;;
16063;SDS011;8136;53.172;8.256;2024-02-21T12:59:51;7.30;;;4.83;;
16063;SDS011;8136;53.172;8.256;2024-02-21T13:02:18;8.37;;;4.47;;
16063;SDS011;8136;53.172;8.256;2024-02-21T13:05:06;6.90;;;4.20;;
16063;SDS011;8136;53.172;8.256;2024-02-21T13:07:40;9.63;;;4.87;;
16063;SDS011;8136;53.172;8.256;2024-02-21T13:10:08;8.20;;;4.43;;
16063;SDS011;8136;53.172;8.256;2024-02-21T13:12:38;5.57;;;3.87;;
16063;SDS011;8136;53.172;8.256;2024-02-21T13:15:08;8.10;;;4.93;;
16063;SDS011;8136;53.172;8.256;2024-02-21T13:17:37;7.17;;;4.50;;
16063;SDS011;8136;53.172;8.256;2024-02-21T13:20:05;5.57;;;4.27;;
16063;SDS011;8136;53.172;8.256;2024-02-21T13:22:37;6.30;;;4.50;;
16063;SDS011;8136;53.172;8.256;2024-02-21T13:25:13;6.27;;;4.17;;
16063;SDS011;8136;53.172;8.256;2024-02-21T13:28:21;6.43;;;4.43;;
16063;SDS011;8136;53.172;8.256;2024-02-21T13:30:34;6.00;;;4.43;;
16063;SDS011;8136;53.172;8.256;2024-02-21T13:33:01;7.97;;;4.70;;
16063;SDS011;8136;53.172;8.256;2024-02-21T13:35:29;8.90;;;4.87;;
16063;SDS011;8136;53.172;8.256;2024-02-21T13:37:55;6.77;;;4.60;;
16063;SDS011;8136;53.172;8.256;2024-02-21T13:40:24;7.87;;;4.50;;
16063;SDS011;8136;53.172;8.256;2024-02-21T13:42:51;6.77;;;4.60;;
16063;SDS011;8136;53.172;8.256;2024-02-21T13:45:19;7.63;;;4.47;;
16063;SDS011;8136;53.172;8.256;2024-02-21T13:47:51;8.63;;;4.77;;
16063;SDS011;8136;53.172;8.256;2024-02-21T13:50:29;5.77;;;4.70;;
16063;SDS011;8136;53.172;8.256;2024-02-21T13:53:14;6.13;;;3.73;;
16063;SDS011;8136;53.172;8.256;2024-02-21T13:55:47;5.27;;;4.23;;
16063;SDS011;8136;53.172;8.256;2024-02-21T13:58:20;5.57;;;3.80;;
16063;SDS011;8136;53.172;8.256;2024-02-21T14:00:51;6.30;;;3.77;;
16063;SDS011;8136;53.172;8.256;2024-02-21T14:03:23;5.03;;;4.00;;
16063;SDS011;8136;53.172;8.256;2024-02-21T14:05:50;6.27;;;3.53;;
16063;SDS011;8136;53.172;8.256;2024-02-21T14:08:20;5.20;;;4.07;;
16063;SDS011;8136;53.172;8.256;2024-02-21T14:10:50;4.60;;;3.53;;
16063;SDS011;8136;53.172;8.256;2024-02-21T14:13:24;7.90;;;4.37;;
16063;SDS011;8136;53.172;8.256;2024-02-21T14:15:51;7.30;;;4.40;;
16063;SDS011;8136;53.172;8.256;2024-02-21T14:18:19;7.40;;;5.23;;
16063;SDS011;8136;53.172;8.256;2024-02-21T14:20:49;8.90;;;5.70;;
16063;SDS011;8136;53.172;8.256;2024-02-21T14:23:16;11.17;;;7.20;;
16063;SDS011;8136;53.172;8.256;2024-02-21T14:25:43;11.40;;;7.00;;
16063;SDS011;8136;53.172;8.256;2024-02-21T14:28:11;10.37;;;7.30;;
16063;SDS011;8136;53.172;8.256;2024-02-21T14:30:41;10.43;;;7.57;;
16063;SDS011;8136;53.172;8.256;2024-02-21T14:33:08;10.60;;;8.00;;
16063;SDS011;8136;53.172;8.256;2024-02-21T14:35:35;11.60;;;9.07;;
16063;SDS011;8136;53.172;8.256;2024-02-21T14:38:02;11.53;;;8.50;;
16063;SDS011;8136;53.172;8.256;2024-02-21T14:40:29;12.37;;;9.10;;
16063;SDS011;8136;53.172;8.256;2024-02-21T14:42:56;10.90;;;8.33;;
16063;SDS011;8136;53.172;8.256;2024-02-21T14:45:24;10.20;;;7.47;;
16063;SDS011;8136;53.172;8.256;2024-02-21T14:47:51;11.00;;;7.80;;
16063;SDS011;8136;53.172;8.256;2024-02-21T14:50:20;9.03;;;7.60;;
16063;SDS011;8136;53.172;8.256;2024-02-21T14:52:48;9.53;;;6.90;;
16063;SDS011;8136;53.172;8.256;2024-02-21T14:55:15;9.93;;;7.30;;
16063;SDS011;8136;53.172;8.256;2024-02-21T14:57:42;12.50;;;7.30;;
16063;SDS011;8136;53.172;8.256;2024-02-21T15:00:09;9.80;;;7.57;;
16063;SDS011;8136;53.172;8.256;2024-02-21T15:02:39;12.13;;;8.03;;
16063;SDS011;8136;53.172;8.256;2024-02-21T15:05:06;11.07;;;8.47;;
16063;SDS011;8136;53.172;8.256;2024-02-21T15:07:37;10.77;;;8.17;;
16063;SDS011;8136;53.172;8.256;2024-02-21T15:10:07;10.40;;;8.00;;